sensor_id;sensor_type;location;lat;lon;timestamp;pressure;altitude;pressure_sealevel;temperature;humidity
23253;BME280;11795;47.054;15.408;2023-02-17T00:00:00;98290;;;2.4;71.4
23253;BME280;11795;47.054;15.408;2023-02-17T00:02:00;98290;;;2.5;71.0
23253;BME280;11795;47.054;15.408;2023-02-17T00:04:00;98290;;;2.3;71.6
23253;BME280;11795;47.054;15.408;2023-02-17T00:06:04;98290;;;2.5;71.4
23253;BME280;11795;47.054;15.408;2023-02-17T00:08:00;98280;;;2.4;71.6
23253;BME280;11795;47.054;15.408;2023-02-17T00:10:00;98290;;;2.4;72.1
23253;BME280;11795;47.054;15.408;2023-02-17T00:12:00;98290;;;2.4;72.2
23253;BME280;11795;47.054;15.408;2023-02-17T00:14:00;98290;;;2.3;72.7
23253;BME280;11795;47.054;15.408;2023-02-17T00:16:05;98290;;;2.5;72.4
23253;BME280;11795;47.054;15.408;2023-02-17T00:18:00;98280;;;2.4;72.6
23253;BME280;11795;47.054;15.408;2023-02-17T00:20:00;98280;;;2.3;73.1
23253;BME280;11795;47.054;15.408;2023-02-17T00:22:01;98290;;;2.5;72.6
23253;BME280;11795;47.054;15.408;2023-02-17T00:24:00;98290;;;2.3;72.9
23253;BME280;11795;47.054;15.408;2023-02-17T00:26:03;98280;;;2.6;72.3
23253;BME280;11795;47.054;15.408;2023-02-17T00:28:00;98280;;;2.4;72.6
23253;BME280;11795;47.054;15.408;2023-02-17T00:30:00;98280;;;2.3;72.9
23253;BME280;11795;47.054;15.408;2023-02-17T00:32:00;98280;;;2.5;72.4
23253;BME280;11795;47.054;15.408;2023-02-17T00:34:00;98280;;;2.4;72.7
23253;BME280;11795;47.054;15.408;2023-02-17T00:36:03;98280;;;2.5;72.1
23253;BME280;11795;47.054;15.408;2023-02-17T00:38:00;98290;;;2.4;72.3
23253;BME280;11795;47.054;15.408;2023-02-17T00:40:00;98290;;;2.3;72.5
23253;BME280;11795;47.054;15.408;2023-02-17T00:42:00;98300;;;2.5;72.0
23253;BME280;11795;47.054;15.408;2023-02-17T00:44:00;98300;;;2.3;72.5
23253;BME280;11795;47.054;15.408;2023-02-17T00:46:03;98300;;;2.5;72.3
23253;BME280;11795;47.054;15.408;2023-02-17T00:48:00;98300;;;2.3;73.2
23253;BME280;11795;47.054;15.408;2023-02-17T00:50:00;98300;;;2.2;73.4
23253;BME280;11795;47.054;15.408;2023-02-17T00:52:01;98290;;;2.4;72.9
23253;BME280;11795;47.054;15.408;2023-02-17T00:54:00;98290;;;2.3;73.3
23253;BME280;11795;47.054;15.408;2023-02-17T00:56:00;98290;;;2.5;73.3
23253;BME280;11795;47.054;15.408;2023-02-17T00:58:00;98300;;;2.4;73.4
23253;BME280;11795;47.054;15.408;2023-02-17T01:00:00;98300;;;2.3;73.5
23253;BME280;11795;47.054;15.408;2023-02-17T01:02:00;98300;;;2.4;73.1
23253;BME280;11795;47.054;15.408;2023-02-17T01:04:00;98290;;;2.3;73.5
23253;BME280;11795;47.054;15.408;2023-02-17T01:06:04;98280;;;2.5;73.2
23253;BME280;11795;47.054;15.408;2023-02-17T01:08:00;98280;;;2.3;73.7
23253;BME280;11795;47.054;15.408;2023-02-17T01:10:00;98280;;;2.3;73.9
23253;BME280;11795;47.054;15.408;2023-02-17T01:12:00;98280;;;2.4;73.4
23253;BME280;11795;47.054;15.408;2023-02-17T01:14:02;98280;;;2.3;73.8
23253;BME280;11795;47.054;15.408;2023-02-17T01:16:00;98280;;;2.5;73.3
23253;BME280;11795;47.054;15.408;2023-02-17T01:18:00;98270;;;2.4;73.5
23253;BME280;11795;47.054;15.408;2023-02-17T01:20:00;98280;;;2.3;74.1
23253;BME280;11795;47.054;15.408;2023-02-17T01:22:00;98280;;;2.5;73.4
23253;BME280;11795;47.054;15.408;2023-02-17T01:24:02;98280;;;2.4;73.6
23253;BME280;11795;47.054;15.408;2023-02-17T01:26:00;98280;;;2.6;73.2
23253;BME280;11795;47.054;15.408;2023-02-17T01:28:00;98280;;;2.4;73.4
23253;BME280;11795;47.054;15.408;2023-02-17T01:30:00;98280;;;2.3;73.8
23253;BME280;11795;47.054;15.408;2023-02-17T01:32:00;98270;;;2.5;73.2
23253;BME280;11795;47.054;15.408;2023-02-17T01:34:02;98260;;;2.4;73.7
23253;BME280;11795;47.054;15.408;2023-02-17T01:36:01;98260;;;2.5;73.4
23253;BME280;11795;47.054;15.408;2023-02-17T01:38:00;98270;;;2.4;73.5
23253;BME280;11795;47.054;15.408;2023-02-17T01:40:00;98260;;;2.4;73.8
23253;BME280;11795;47.054;15.408;2023-02-17T01:42:00;98260;;;2.5;73.2
23253;BME280;11795;47.054;15.408;2023-02-17T01:44:07;98260;;;2.4;73.7
23253;BME280;11795;47.054;15.408;2023-02-17T01:46:01;98260;;;2.6;73.8
23253;BME280;11795;47.054;15.408;2023-02-17T01:48:05;98260;;;2.5;73.8
23253;BME280;11795;47.054;15.408;2023-02-17T01:50:00;98260;;;2.4;74.2
23253;BME280;11795;47.054;15.408;2023-02-17T01:52:07;98260;;;2.5;73.9
23253;BME280;11795;47.054;15.408;2023-02-17T01:54:02;98260;;;2.5;74.0
23253;BME280;11795;47.054;15.408;2023-02-17T01:56:01;98260;;;2.6;73.7
23253;BME280;11795;47.054;15.408;2023-02-17T01:58:01;98250;;;2.5;73.7
23253;BME280;11795;47.054;15.408;2023-02-17T02:00:00;98250;;;2.4;74.0
23253;BME280;11795;47.054;15.408;2023-02-17T02:02:03;98250;;;2.5;73.5
23253;BME280;11795;47.054;15.408;2023-02-17T02:04:02;98240;;;2.4;74.0
23253;BME280;11795;47.054;15.408;2023-02-17T02:06:04;98250;;;2.6;73.7
23253;BME280;11795;47.054;15.408;2023-02-17T02:08:00;98240;;;2.5;74.0
23253;BME280;11795;47.054;15.408;2023-02-17T02:10:00;98240;;;2.4;74.3
23253;BME280;11795;47.054;15.408;2023-02-17T02:12:00;98240;;;2.5;73.6
23253;BME280;11795;47.054;15.408;2023-02-17T02:14:00;98240;;;2.5;73.9
23253;BME280;11795;47.054;15.408;2023-02-17T02:16:06;98240;;;2.7;73.5
23253;BME280;11795;47.054;15.408;2023-02-17T02:18:10;98230;;;2.6;73.6
23253;BME280;11795;47.054;15.408;2023-02-17T02:20:19;98230;;;2.5;73.8
23253;BME280;11795;47.054;15.408;2023-02-17T02:22:17;98240;;;2.6;73.3
23253;BME280;11795;47.054;15.408;2023-02-17T02:24:07;98230;;;2.5;73.7
23253;BME280;11795;47.054;15.408;2023-02-17T02:26:14;98230;;;2.7;73.5
23253;BME280;11795;47.054;15.408;2023-02-17T02:28:09;98230;;;2.7;73.1
23253;BME280;11795;47.054;15.408;2023-02-17T02:30:15;98220;;;2.6;73.4
23253;BME280;11795;47.054;15.408;2023-02-17T02:34:03;98220;;;2.5;73.5
23253;BME280;11795;47.054;15.408;2023-02-17T02:36:05;98220;;;2.7;73.3
23253;BME280;11795;47.054;15.408;2023-02-17T02:38:05;98210;;;2.5;73.7
23253;BME280;11795;47.054;15.408;2023-02-17T02:40:02;98220;;;2.5;74.1
23253;BME280;11795;47.054;15.408;2023-02-17T02:42:03;98220;;;2.6;73.7
23253;BME280;11795;47.054;15.408;2023-02-17T02:44:03;98220;;;2.4;74.1
23253;BME280;11795;47.054;15.408;2023-02-17T02:46:00;98220;;;2.6;73.9
23253;BME280;11795;47.054;15.408;2023-02-17T02:48:01;98220;;;2.5;74.6
23253;BME280;11795;47.054;15.408;2023-02-17T02:50:00;98220;;;2.3;75.6
23253;BME280;11795;47.054;15.408;2023-02-17T02:52:07;98230;;;2.5;75.1
23253;BME280;11795;47.054;15.408;2023-02-17T02:54:14;98230;;;2.4;75.3
23253;BME280;11795;47.054;15.408;2023-02-17T02:56:05;98230;;;2.6;74.6
23253;BME280;11795;47.054;15.408;2023-02-17T02:58:05;98220;;;2.5;74.6
23253;BME280;11795;47.054;15.408;2023-02-17T03:00:09;98230;;;2.4;74.9
23253;BME280;11795;47.054;15.408;2023-02-17T03:02:07;98230;;;2.5;74.4
23253;BME280;11795;47.054;15.408;2023-02-17T03:04:06;98230;;;2.5;74.4
23253;BME280;11795;47.054;15.408;2023-02-17T03:06:06;98230;;;2.6;74.1
23253;BME280;11795;47.054;15.408;2023-02-17T03:08:04;98220;;;2.5;74.3
23253;BME280;11795;47.054;15.408;2023-02-17T03:10:00;98220;;;2.5;74.5
23253;BME280;11795;47.054;15.408;2023-02-17T03:12:00;98220;;;2.5;74.2
23253;BME280;11795;47.054;15.408;2023-02-17T03:14:01;98220;;;2.4;74.9
23253;BME280;11795;47.054;15.408;2023-02-17T03:16:00;98220;;;2.6;74.5
23253;BME280;11795;47.054;15.408;2023-02-17T03:18:01;98220;;;2.5;74.6
23253;BME280;11795;47.054;15.408;2023-02-17T03:20:02;98220;;;2.4;74.8
23253;BME280;11795;47.054;15.408;2023-02-17T03:22:04;98220;;;2.6;74.2
23253;BME280;11795;47.054;15.408;2023-02-17T03:24:00;98210;;;2.5;74.6
23253;BME280;11795;47.054;15.408;2023-02-17T03:26:00;98210;;;2.7;74.2
23253;BME280;11795;47.054;15.408;2023-02-17T03:32:01;98220;;;2.6;74.2
23253;BME280;11795;47.054;15.408;2023-02-17T03:34:00;98220;;;2.5;74.6
23253;BME280;11795;47.054;15.408;2023-02-17T03:36:00;98220;;;2.7;74.3
23253;BME280;11795;47.054;15.408;2023-02-17T03:38:00;98220;;;2.5;74.5
23253;BME280;11795;47.054;15.408;2023-02-17T03:40:00;98220;;;2.4;74.9
23253;BME280;11795;47.054;15.408;2023-02-17T03:42:00;98220;;;2.6;74.2
23253;BME280;11795;47.054;15.408;2023-02-17T03:44:00;98220;;;2.5;74.6
23253;BME280;11795;47.054;15.408;2023-02-17T03:46:01;98220;;;2.7;74.3
23253;BME280;11795;47.054;15.408;2023-02-17T03:48:00;98230;;;2.5;74.6
23253;BME280;11795;47.054;15.408;2023-02-17T03:50:00;98230;;;2.5;74.8
23253;BME280;11795;47.054;15.408;2023-02-17T03:52:00;98230;;;2.7;74.2
23253;BME280;11795;47.054;15.408;2023-02-17T03:54:00;98220;;;2.5;74.8
23253;BME280;11795;47.054;15.408;2023-02-17T03:56:00;98220;;;2.7;74.7
23253;BME280;11795;47.054;15.408;2023-02-17T03:58:00;98220;;;2.5;74.8
23253;BME280;11795;47.054;15.408;2023-02-17T04:00:00;98220;;;2.4;75.2
23253;BME280;11795;47.054;15.408;2023-02-17T04:02:00;98220;;;2.6;74.7
23253;BME280;11795;47.054;15.408;2023-02-17T04:04:00;98220;;;2.5;75.1
23253;BME280;11795;47.054;15.408;2023-02-17T04:06:00;98220;;;2.7;74.8
23253;BME280;11795;47.054;15.408;2023-02-17T04:08:00;98220;;;2.5;74.9
23253;BME280;11795;47.054;15.408;2023-02-17T04:10:00;98220;;;2.4;75.3
23253;BME280;11795;47.054;15.408;2023-02-17T04:12:00;98220;;;2.4;75.9
23253;BME280;11795;47.054;15.408;2023-02-17T04:14:00;98220;;;2.4;76.0
23253;BME280;11795;47.054;15.408;2023-02-17T04:16:00;98220;;;2.6;75.4
23253;BME280;11795;47.054;15.408;2023-02-17T04:18:00;98220;;;2.5;75.5
23253;BME280;11795;47.054;15.408;2023-02-17T04:20:00;98210;;;2.4;75.8
23253;BME280;11795;47.054;15.408;2023-02-17T04:22:00;98220;;;2.6;75.3
23253;BME280;11795;47.054;15.408;2023-02-17T04:24:01;98220;;;2.5;75.7
23253;BME280;11795;47.054;15.408;2023-02-17T04:26:00;98220;;;2.7;75.0
23253;BME280;11795;47.054;15.408;2023-02-17T04:28:00;98220;;;2.5;75.4
23253;BME280;11795;47.054;15.408;2023-02-17T04:30:00;98220;;;2.4;76.0
23253;BME280;11795;47.054;15.408;2023-02-17T04:32:00;98220;;;2.5;75.4
23253;BME280;11795;47.054;15.408;2023-02-17T04:34:00;98220;;;2.4;75.7
23253;BME280;11795;47.054;15.408;2023-02-17T04:36:00;98220;;;2.7;75.4
23253;BME280;11795;47.054;15.408;2023-02-17T04:38:00;98220;;;2.5;75.5
23253;BME280;11795;47.054;15.408;2023-02-17T04:40:00;98220;;;2.5;75.8
23253;BME280;11795;47.054;15.408;2023-02-17T04:42:00;98210;;;2.6;75.2
23253;BME280;11795;47.054;15.408;2023-02-17T04:44:00;98210;;;2.5;75.5
23253;BME280;11795;47.054;15.408;2023-02-17T04:46:00;98210;;;2.7;75.2
23253;BME280;11795;47.054;15.408;2023-02-17T04:48:00;98210;;;2.6;75.2
23253;BME280;11795;47.054;15.408;2023-02-17T04:50:00;98210;;;2.5;75.5
23253;BME280;11795;47.054;15.408;2023-02-17T04:52:00;98210;;;2.7;75.0
23253;BME280;11795;47.054;15.408;2023-02-17T04:54:00;98220;;;2.6;75.5
23253;BME280;11795;47.054;15.408;2023-02-17T04:56:00;98210;;;2.8;75.2
23253;BME280;11795;47.054;15.408;2023-02-17T04:58:00;98220;;;2.7;75.3
23253;BME280;11795;47.054;15.408;2023-02-17T05:00:00;98220;;;2.6;75.6
23253;BME280;11795;47.054;15.408;2023-02-17T05:02:00;98210;;;2.8;74.9
23253;BME280;11795;47.054;15.408;2023-02-17T05:04:00;98210;;;2.7;75.4
23253;BME280;11795;47.054;15.408;2023-02-17T05:06:00;98210;;;2.9;75.0
23253;BME280;11795;47.054;15.408;2023-02-17T05:08:00;98210;;;2.8;74.9
23253;BME280;11795;47.054;15.408;2023-02-17T05:10:00;98210;;;2.8;75.1
23253;BME280;11795;47.054;15.408;2023-02-17T05:12:02;98210;;;2.9;74.6
23253;BME280;11795;47.054;15.408;2023-02-17T05:14:00;98200;;;2.8;74.7
23253;BME280;11795;47.054;15.408;2023-02-17T05:16:00;98200;;;2.9;74.7
23253;BME280;11795;47.054;15.408;2023-02-17T05:18:00;98200;;;2.6;75.3
23253;BME280;11795;47.054;15.408;2023-02-17T05:20:00;98200;;;2.6;75.6
23253;BME280;11795;47.054;15.408;2023-02-17T05:22:00;98200;;;2.7;75.1
23253;BME280;11795;47.054;15.408;2023-02-17T05:24:00;98200;;;2.6;75.5
23253;BME280;11795;47.054;15.408;2023-02-17T05:26:00;98200;;;2.8;75.3
23253;BME280;11795;47.054;15.408;2023-02-17T05:28:00;98200;;;2.6;75.4
23253;BME280;11795;47.054;15.408;2023-02-17T05:30:00;98190;;;2.6;75.5
23253;BME280;11795;47.054;15.408;2023-02-17T05:32:00;98190;;;2.7;74.9
23253;BME280;11795;47.054;15.408;2023-02-17T05:34:00;98200;;;2.6;75.4
23253;BME280;11795;47.054;15.408;2023-02-17T05:36:01;98200;;;2.7;75.1
23253;BME280;11795;47.054;15.408;2023-02-17T05:38:00;98200;;;2.6;75.0
23253;BME280;11795;47.054;15.408;2023-02-17T05:40:00;98200;;;2.5;75.5
23253;BME280;11795;47.054;15.408;2023-02-17T05:42:00;98200;;;2.6;74.9
23253;BME280;11795;47.054;15.408;2023-02-17T05:44:00;98200;;;2.5;75.3
23253;BME280;11795;47.054;15.408;2023-02-17T05:46:01;98200;;;2.7;75.1
23253;BME280;11795;47.054;15.408;2023-02-17T05:48:00;98200;;;2.3;76.1
23253;BME280;11795;47.054;15.408;2023-02-17T05:50:00;98210;;;2.3;76.3
23253;BME280;11795;47.054;15.408;2023-02-17T05:52:01;98200;;;2.5;75.7
23253;BME280;11795;47.054;15.408;2023-02-17T05:54:00;98200;;;2.3;76.1
23253;BME280;11795;47.054;15.408;2023-02-17T05:56:00;98210;;;2.5;75.9
23253;BME280;11795;47.054;15.408;2023-02-17T05:58:00;98200;;;2.4;75.9
23253;BME280;11795;47.054;15.408;2023-02-17T06:00:01;98200;;;2.3;76.2
23253;BME280;11795;47.054;15.408;2023-02-17T06:02:00;98200;;;2.5;75.6
23253;BME280;11795;47.054;15.408;2023-02-17T06:04:00;98200;;;2.3;76.0
23253;BME280;11795;47.054;15.408;2023-02-17T06:06:00;98200;;;2.5;75.9
23253;BME280;11795;47.054;15.408;2023-02-17T06:08:00;98200;;;2.3;76.0
23253;BME280;11795;47.054;15.408;2023-02-17T06:10:00;98210;;;2.2;76.3
23253;BME280;11795;47.054;15.408;2023-02-17T06:12:00;98210;;;2.3;75.9
23253;BME280;11795;47.054;15.408;2023-02-17T06:14:00;98210;;;2.2;76.5
23253;BME280;11795;47.054;15.408;2023-02-17T06:16:00;98210;;;2.3;76.4
23253;BME280;11795;47.054;15.408;2023-02-17T06:18:00;98210;;;2.2;76.5
23253;BME280;11795;47.054;15.408;2023-02-17T06:20:00;98200;;;2.1;76.9
23253;BME280;11795;47.054;15.408;2023-02-17T06:22:00;98210;;;2.2;76.4
23253;BME280;11795;47.054;15.408;2023-02-17T06:24:00;98210;;;2.1;76.8
23253;BME280;11795;47.054;15.408;2023-02-17T06:26:00;98210;;;2.3;76.6
23253;BME280;11795;47.054;15.408;2023-02-17T06:28:00;98220;;;2.1;76.5
23253;BME280;11795;47.054;15.408;2023-02-17T06:30:00;98210;;;2.1;76.7
23253;BME280;11795;47.054;15.408;2023-02-17T06:32:00;98210;;;2.2;76.1
23253;BME280;11795;47.054;15.408;2023-02-17T06:34:00;98210;;;2.0;76.6
23253;BME280;11795;47.054;15.408;2023-02-17T06:36:00;98210;;;2.2;76.4
23253;BME280;11795;47.054;15.408;2023-02-17T06:38:00;98210;;;2.1;76.3
23253;BME280;11795;47.054;15.408;2023-02-17T06:40:00;98210;;;2.2;76.4
23253;BME280;11795;47.054;15.408;2023-02-17T06:42:00;98210;;;2.3;76.1
23253;BME280;11795;47.054;15.408;2023-02-17T06:44:00;98220;;;2.3;76.4
23253;BME280;11795;47.054;15.408;2023-02-17T06:46:00;98210;;;2.5;76.2
23253;BME280;11795;47.054;15.408;2023-02-17T06:48:00;98210;;;2.5;76.1
23253;BME280;11795;47.054;15.408;2023-02-17T06:50:00;98210;;;2.4;76.3
23253;BME280;11795;47.054;15.408;2023-02-17T06:52:00;98210;;;2.6;75.7
23253;BME280;11795;47.054;15.408;2023-02-17T06:54:00;98220;;;2.6;76.2
23253;BME280;11795;47.054;15.408;2023-02-17T06:56:00;98220;;;2.8;75.7
23253;BME280;11795;47.054;15.408;2023-02-17T06:58:00;98210;;;2.8;75.5
23253;BME280;11795;47.054;15.408;2023-02-17T07:00:00;98210;;;2.8;75.5
23253;BME280;11795;47.054;15.408;2023-02-17T07:02:00;98210;;;3.2;74.7
23253;BME280;11795;47.054;15.408;2023-02-17T07:04:00;98210;;;3.2;74.4
23253;BME280;11795;47.054;15.408;2023-02-17T07:06:00;98210;;;3.7;73.6
23253;BME280;11795;47.054;15.408;2023-02-17T07:08:00;98210;;;4.1;71.9
23253;BME280;11795;47.054;15.408;2023-02-17T07:10:00;98210;;;4.4;70.6
23253;BME280;11795;47.054;15.408;2023-02-17T07:12:00;98210;;;5.1;69.3
23253;BME280;11795;47.054;15.408;2023-02-17T07:14:00;98210;;;5.9;67.1
23253;BME280;11795;47.054;15.408;2023-02-17T07:16:00;98200;;;6.8;62.8
23253;BME280;11795;47.054;15.408;2023-02-17T07:18:00;98200;;;7.5;60.1
23253;BME280;11795;47.054;15.408;2023-02-17T07:20:00;98200;;;7.9;57.8
23253;BME280;11795;47.054;15.408;2023-02-17T07:22:01;98210;;;8.4;56.4
23253;BME280;11795;47.054;15.408;2023-02-17T07:24:00;98200;;;8.3;56.0
23253;BME280;11795;47.054;15.408;2023-02-17T07:26:00;98200;;;8.3;56.1
23253;BME280;11795;47.054;15.408;2023-02-17T07:28:00;98200;;;8.3;56.1
23253;BME280;11795;47.054;15.408;2023-02-17T07:30:00;98200;;;8.2;55.9
23253;BME280;11795;47.054;15.408;2023-02-17T07:32:01;98200;;;8.4;55.6
23253;BME280;11795;47.054;15.408;2023-02-17T07:34:01;98200;;;8.4;55.7
23253;BME280;11795;47.054;15.408;2023-02-17T07:36:04;98210;;;8.4;55.6
23253;BME280;11795;47.054;15.408;2023-02-17T07:38:00;98210;;;8.5;55.5
23253;BME280;11795;47.054;15.408;2023-02-17T07:40:00;98200;;;8.7;55.2
23253;BME280;11795;47.054;15.408;2023-02-17T07:42:00;98200;;;9.0;54.7
23253;BME280;11795;47.054;15.408;2023-02-17T07:44:00;98200;;;9.2;53.8
23253;BME280;11795;47.054;15.408;2023-02-17T07:46:00;98200;;;9.3;53.3
23253;BME280;11795;47.054;15.408;2023-02-17T07:48:00;98200;;;9.2;53.1
23253;BME280;11795;47.054;15.408;2023-02-17T07:50:00;98190;;;9.1;52.2
23253;BME280;11795;47.054;15.408;2023-02-17T07:52:00;98190;;;9.1;52.6
23253;BME280;11795;47.054;15.408;2023-02-17T07:54:00;98190;;;9.3;52.7
23253;BME280;11795;47.054;15.408;2023-02-17T07:56:01;98190;;;9.8;52.0
23253;BME280;11795;47.054;15.408;2023-02-17T07:58:00;98180;;;10.0;50.8
23253;BME280;11795;47.054;15.408;2023-02-17T08:00:00;98190;;;10.2;50.2
23253;BME280;11795;47.054;15.408;2023-02-17T08:02:00;98180;;;10.6;49.4
23253;BME280;11795;47.054;15.408;2023-02-17T08:04:00;98180;;;10.7;49.3
23253;BME280;11795;47.054;15.408;2023-02-17T08:06:00;98180;;;11.1;48.3
23253;BME280;11795;47.054;15.408;2023-02-17T08:08:10;98180;;;11.2;47.6
23253;BME280;11795;47.054;15.408;2023-02-17T08:10:11;98170;;;11.1;47.8
23253;BME280;11795;47.054;15.408;2023-02-17T08:12:14;98180;;;11.3;47.7
23253;BME280;11795;47.054;15.408;2023-02-17T08:14:00;98190;;;11.4;47.3
23253;BME280;11795;47.054;15.408;2023-02-17T08:16:00;98180;;;11.6;46.4
23253;BME280;11795;47.054;15.408;2023-02-17T08:18:00;98180;;;11.6;46.3
23253;BME280;11795;47.054;15.408;2023-02-17T08:20:00;98180;;;11.4;45.4
23253;BME280;11795;47.054;15.408;2023-02-17T08:22:00;98180;;;11.4;45.8
23253;BME280;11795;47.054;15.408;2023-02-17T08:24:00;98180;;;11.4;46.2
23253;BME280;11795;47.054;15.408;2023-02-17T08:26:00;98180;;;11.9;46.2
23253;BME280;11795;47.054;15.408;2023-02-17T08:28:01;98180;;;12.3;45.1
23253;BME280;11795;47.054;15.408;2023-02-17T08:30:00;98180;;;12.5;44.6
23253;BME280;11795;47.054;15.408;2023-02-17T08:32:00;98170;;;12.7;44.3
23253;BME280;11795;47.054;15.408;2023-02-17T08:34:01;98170;;;12.9;44.0
23253;BME280;11795;47.054;15.408;2023-02-17T08:36:04;98170;;;13.2;43.3
23253;BME280;11795;47.054;15.408;2023-02-17T08:38:00;98160;;;13.4;42.6
23253;BME280;11795;47.054;15.408;2023-02-17T08:40:00;98160;;;13.6;41.9
23253;BME280;11795;47.054;15.408;2023-02-17T08:42:01;98160;;;13.7;40.9
23253;BME280;11795;47.054;15.408;2023-02-17T08:44:03;98160;;;13.7;40.9
23253;BME280;11795;47.054;15.408;2023-02-17T08:46:00;98160;;;13.7;41.3
23253;BME280;11795;47.054;15.408;2023-02-17T08:48:00;98150;;;13.8;41.3
23253;BME280;11795;47.054;15.408;2023-02-17T08:50:00;98150;;;13.9;40.9
23253;BME280;11795;47.054;15.408;2023-02-17T08:52:01;98150;;;14.1;41.0
23253;BME280;11795;47.054;15.408;2023-02-17T08:54:02;98150;;;14.2;40.4
23253;BME280;11795;47.054;15.408;2023-02-17T08:56:00;98160;;;14.0;40.6
23253;BME280;11795;47.054;15.408;2023-02-17T08:58:00;98160;;;14.1;40.3
23253;BME280;11795;47.054;15.408;2023-02-17T09:00:01;98150;;;14.2;40.4
23253;BME280;11795;47.054;15.408;2023-02-17T09:02:00;98160;;;14.4;39.7
23253;BME280;11795;47.054;15.408;2023-02-17T09:04:02;98160;;;14.5;39.6
23253;BME280;11795;47.054;15.408;2023-02-17T09:06:00;98160;;;14.6;39.1
23253;BME280;11795;47.054;15.408;2023-02-17T09:08:00;98160;;;14.7;38.9
23253;BME280;11795;47.054;15.408;2023-02-17T09:10:00;98150;;;14.7;38.3
23253;BME280;11795;47.054;15.408;2023-02-17T09:12:00;98140;;;14.9;38.0
23253;BME280;11795;47.054;15.408;2023-02-17T09:14:00;98150;;;15.1;38.2
23253;BME280;11795;47.054;15.408;2023-02-17T09:16:01;98140;;;15.0;38.3
23253;BME280;11795;47.054;15.408;2023-02-17T09:18:00;98140;;;14.8;37.6
23253;BME280;11795;47.054;15.408;2023-02-17T09:20:00;98140;;;14.1;38.6
23253;BME280;11795;47.054;15.408;2023-02-17T09:22:00;98140;;;14.0;39.3
23253;BME280;11795;47.054;15.408;2023-02-17T09:24:00;98140;;;13.7;39.4
23253;BME280;11795;47.054;15.408;2023-02-17T09:26:01;98130;;;13.4;39.8
23253;BME280;11795;47.054;15.408;2023-02-17T09:28:00;98130;;;13.6;40.1
23253;BME280;11795;47.054;15.408;2023-02-17T09:30:00;98130;;;13.7;40.5
23253;BME280;11795;47.054;15.408;2023-02-17T09:32:00;98130;;;14.1;39.9
23253;BME280;11795;47.054;15.408;2023-02-17T09:34:01;98130;;;14.1;39.9
23253;BME280;11795;47.054;15.408;2023-02-17T09:36:00;98120;;;14.3;39.3
23253;BME280;11795;47.054;15.408;2023-02-17T09:38:00;98120;;;14.7;38.9
23253;BME280;11795;47.054;15.408;2023-02-17T09:40:00;98120;;;14.8;38.2
23253;BME280;11795;47.054;15.408;2023-02-17T09:42:00;98120;;;15.2;37.9
23253;BME280;11795;47.054;15.408;2023-02-17T09:44:01;98120;;;15.4;37.6
23253;BME280;11795;47.054;15.408;2023-02-17T09:46:06;98120;;;15.5;37.4
23253;BME280;11795;47.054;15.408;2023-02-17T09:48:04;98120;;;15.8;36.3
23253;BME280;11795;47.054;15.408;2023-02-17T09:50:03;98110;;;15.9;36.2
23253;BME280;11795;47.054;15.408;2023-02-17T09:52:05;98110;;;16.2;35.2
23253;BME280;11795;47.054;15.408;2023-02-17T09:54:05;98110;;;16.2;35.5
23253;BME280;11795;47.054;15.408;2023-02-17T09:56:02;98110;;;16.3;34.9
23253;BME280;11795;47.054;15.408;2023-02-17T09:58:03;98110;;;16.4;34.7
23253;BME280;11795;47.054;15.408;2023-02-17T10:00:06;98110;;;16.4;34.0
23253;BME280;11795;47.054;15.408;2023-02-17T10:02:05;98110;;;16.6;33.9
23253;BME280;11795;47.054;15.408;2023-02-17T10:04:06;98110;;;16.6;34.6
23253;BME280;11795;47.054;15.408;2023-02-17T10:06:05;98100;;;16.8;34.8
23253;BME280;11795;47.054;15.408;2023-02-17T10:08:05;98100;;;17.0;33.9
23253;BME280;11795;47.054;15.408;2023-02-17T10:10:05;98100;;;17.1;33.6
23253;BME280;11795;47.054;15.408;2023-02-17T10:12:02;98100;;;17.3;33.1
23253;BME280;11795;47.054;15.408;2023-02-17T10:14:03;98100;;;17.0;32.8
23253;BME280;11795;47.054;15.408;2023-02-17T10:16:04;98100;;;17.0;33.5
23253;BME280;11795;47.054;15.408;2023-02-17T10:18:10;98100;;;17.3;34.0
23253;BME280;11795;47.054;15.408;2023-02-17T10:20:04;98100;;;17.3;33.5
23253;BME280;11795;47.054;15.408;2023-02-17T10:22:06;98100;;;17.4;33.6
23253;BME280;11795;47.054;15.408;2023-02-17T10:24:00;98100;;;17.4;33.1
23253;BME280;11795;47.054;15.408;2023-02-17T10:26:07;98090;;;17.4;33.0
23253;BME280;11795;47.054;15.408;2023-02-17T10:28:04;98090;;;17.7;33.2
23253;BME280;11795;47.054;15.408;2023-02-17T10:30:14;98090;;;17.6;33.3
23253;BME280;11795;47.054;15.408;2023-02-17T10:32:13;98090;;;18.0;33.8
23253;BME280;11795;47.054;15.408;2023-02-17T10:34:02;98090;;;18.1;34.5
23253;BME280;11795;47.054;15.408;2023-02-17T10:36:10;98080;;;18.1;34.9
23253;BME280;11795;47.054;15.408;2023-02-17T10:38:05;98080;;;18.2;34.1
23253;BME280;11795;47.054;15.408;2023-02-17T10:40:07;98070;;;17.7;32.7
23253;BME280;11795;47.054;15.408;2023-02-17T10:42:01;98060;;;17.7;32.5
23253;BME280;11795;47.054;15.408;2023-02-17T10:44:04;98070;;;17.5;32.9
23253;BME280;11795;47.054;15.408;2023-02-17T10:46:04;98060;;;17.2;33.3
23253;BME280;11795;47.054;15.408;2023-02-17T10:48:03;98070;;;17.2;33.7
23253;BME280;11795;47.054;15.408;2023-02-17T10:50:02;98070;;;17.0;34.0
23253;BME280;11795;47.054;15.408;2023-02-17T10:52:02;98060;;;16.9;33.9
23253;BME280;11795;47.054;15.408;2023-02-17T10:54:03;98060;;;16.6;34.4
23253;BME280;11795;47.054;15.408;2023-02-17T10:56:05;98060;;;16.4;34.9
23253;BME280;11795;47.054;15.408;2023-02-17T10:58:05;98060;;;16.5;34.2
23253;BME280;11795;47.054;15.408;2023-02-17T11:00:00;98060;;;16.3;34.6
23253;BME280;11795;47.054;15.408;2023-02-17T11:02:13;98050;;;16.2;34.4
23253;BME280;11795;47.054;15.408;2023-02-17T11:04:02;98050;;;16.1;35.1
23253;BME280;11795;47.054;15.408;2023-02-17T11:08:03;98030;;;16.0;35.2
23253;BME280;11795;47.054;15.408;2023-02-17T11:12:03;98030;;;16.0;35.4
23253;BME280;11795;47.054;15.408;2023-02-17T11:14:08;98030;;;15.9;36.6
23253;BME280;11795;47.054;15.408;2023-02-17T11:16:00;98040;;;15.8;36.1
23253;BME280;11795;47.054;15.408;2023-02-17T11:18:08;98040;;;15.9;35.5
23253;BME280;11795;47.054;15.408;2023-02-17T11:20:07;98040;;;15.8;35.1
23253;BME280;11795;47.054;15.408;2023-02-17T11:22:04;98040;;;16.0;35.7
23253;BME280;11795;47.054;15.408;2023-02-17T11:24:03;98030;;;15.9;36.1
23253;BME280;11795;47.054;15.408;2023-02-17T11:26:07;98030;;;15.9;36.1